sim
Sign-in with your pilot id or email,
or register
Callsign
Passwort

Schedule Details

Flight Number: EWG9552
Departure: Dusseldorf International Airport (EDDL) at 07:05
Arrival: Fuerteventura Airport (GCFV) at 11:40
Route: Eurowings Passenger Schedule. Enter filed route here before submitting Pirep.

Weather Information
Getting current METAR information for EDDL 182020Z 07011KT CAVOK 17/03 Q1025 NOSIG
Getting current METAR information for GCFV 182030Z 36014KT 9999 FEW045 18/11 Q1019

Schedule Frequency

Route Map